SAS6WK EFHK-EFIV
Flight info
| Callsign | SAS6WK |
|---|---|
| Flight time | 1h 36m |
| Altitude | 38000 |
| Route | TEVRU Y75 USUPO DCT RENVI/N0451F390 DCT SOTIT |
| Aircraft | A20N/M-SDE2E3FGHIRWXY/LB1 |
Departure
| Time | 2026-04-24 21:33 |
|---|---|
| Airport | Helsinki Vantaa Airport (EFHK) |
Arrival
| Time | 2026-04-24 23:10 |
|---|---|
| Airport | Ivalo Airport (EFIV) |
| Time | Latitude | Longitude | Altitude | Speed | Heading |
|---|---|---|---|---|---|
| 2026-04-24 20:37 | 60.31968 | 24.96742 | 163 ft | 0 kts | 176° |
| 2026-04-24 21:12 | 60.31971 | 24.96742 | 163 ft | 1 kts | 176° |
| 2026-04-24 21:12 | 60.31981 | 24.96741 | 163 ft | 1 kts | 176° |
| 2026-04-24 21:12 | 60.31989 | 24.96740 | 163 ft | 1 kts | 176° |
| 2026-04-24 21:13 | 60.31997 | 24.96739 | 163 ft | 1 kts | 176° |
| 2026-04-24 21:13 | 60.32005 | 24.96738 | 163 ft | 1 kts | 176° |
| 2026-04-24 21:13 | 60.32012 | 24.96737 | 163 ft | 1 kts | 176° |
| 2026-04-24 21:13 | 60.32020 | 24.96736 | 163 ft | 1 kts | 181° |
| 2026-04-24 21:14 | 60.32028 | 24.96736 | 163 ft | 1 kts | 187° |
| 2026-04-24 21:14 | 60.32035 | 24.96739 | 163 ft | 1 kts | 197° |
| 2026-04-24 21:14 | 60.32043 | 24.96743 | 163 ft | 1 kts | 207° |
| 2026-04-24 21:14 | 60.32049 | 24.96751 | 163 ft | 0 kts | 210° |
| 2026-04-24 21:16 | 60.32049 | 24.96750 | 163 ft | 0 kts | 210° |
| 2026-04-24 21:24 | 60.32040 | 24.96741 | 163 ft | 7 kts | 208° |
| 2026-04-24 21:24 | 60.32029 | 24.96730 | 163 ft | 0 kts | 207° |
| 2026-04-24 21:25 | 60.32024 | 24.96718 | 163 ft | 6 kts | 230° |
| 2026-04-24 21:25 | 60.31980 | 24.96602 | 163 ft | 13 kts | 232° |
| 2026-04-24 21:26 | 60.31922 | 24.96462 | 163 ft | 12 kts | 226° |
| 2026-04-24 21:26 | 60.31862 | 24.96320 | 163 ft | 14 kts | 239° |
| 2026-04-24 21:26 | 60.31867 | 24.96148 | 164 ft | 14 kts | 304° |
| 2026-04-24 21:26 | 60.31935 | 24.96016 | 168 ft | 11 kts | 318° |
| 2026-04-24 21:27 | 60.31984 | 24.95925 | 171 ft | 2 kts | 316° |
| 2026-04-24 21:27 | 60.31989 | 24.95916 | 171 ft | 2 kts | 316° |
| 2026-04-24 21:27 | 60.32002 | 24.95891 | 172 ft | 4 kts | 316° |
| 2026-04-24 21:27 | 60.32017 | 24.95863 | 172 ft | 5 kts | 316° |
| 2026-04-24 21:28 | 60.32067 | 24.95768 | 174 ft | 9 kts | 319° |
| 2026-04-24 21:28 | 60.32122 | 24.95672 | 172 ft | 13 kts | 317° |
| 2026-04-24 21:28 | 60.32196 | 24.95535 | 173 ft | 15 kts | 317° |
| 2026-04-24 21:28 | 60.32277 | 24.95382 | 175 ft | 17 kts | 316° |
| 2026-04-24 21:29 | 60.32372 | 24.95255 | 177 ft | 17 kts | 339° |
| 2026-04-24 21:29 | 60.32488 | 24.95179 | 179 ft | 18 kts | 342° |
| 2026-04-24 21:29 | 60.32613 | 24.95096 | 180 ft | 20 kts | 342° |
| 2026-04-24 21:29 | 60.32755 | 24.95004 | 177 ft | 23 kts | 342° |
| 2026-04-24 21:30 | 60.32908 | 24.94879 | 175 ft | 18 kts | 325° |
| 2026-04-24 21:30 | 60.32971 | 24.94763 | 177 ft | 11 kts | 315° |
| 2026-04-24 21:30 | 60.33031 | 24.94656 | 181 ft | 9 kts | 320° |
| 2026-04-24 21:30 | 60.33069 | 24.94588 | 183 ft | 6 kts | 317° |
| 2026-04-24 21:31 | 60.33103 | 24.94520 | 186 ft | 8 kts | 310° |
| 2026-04-24 21:31 | 60.33115 | 24.94394 | 187 ft | 11 kts | 245° |
| 2026-04-24 21:31 | 60.33090 | 24.94337 | 191 ft | 0 kts | 223° |
| 2026-04-24 21:32 | 60.33067 | 24.94290 | 200 ft | 22 kts | 227° |
| 2026-04-24 21:32 | 60.32790 | 24.93675 | 181 ft | 93 kts | 227° |
| 2026-04-24 21:33 | 60.32224 | 24.92429 | 165 ft | 145 kts | 227° |
| 2026-04-24 21:33 | 60.31732 | 24.91371 | 369 ft | 156 kts | 226° |
| 2026-04-24 21:33 | 60.30671 | 24.89141 | 1017 ft | 167 kts | 229° |
| 2026-04-24 21:33 | 60.30267 | 24.87887 | 1579 ft | 157 kts | 254° |
| 2026-04-24 21:34 | 60.30163 | 24.85739 | 2197 ft | 160 kts | 277° |
| 2026-04-24 21:34 | 60.30441 | 24.83445 | 2535 ft | 177 kts | 290° |
| 2026-04-24 21:34 | 60.30934 | 24.81033 | 2844 ft | 195 kts | 294° |
| 2026-04-24 21:34 | 60.31529 | 24.78440 | 3090 ft | 213 kts | 295° |
| 2026-04-24 21:35 | 60.32256 | 24.75679 | 3352 ft | 231 kts | 301° |
| 2026-04-24 21:35 | 60.33098 | 24.72762 | 3679 ft | 247 kts | 300° |
| 2026-04-24 21:35 | 60.33949 | 24.69729 | 4371 ft | 249 kts | 300° |
| 2026-04-24 21:35 | 60.34795 | 24.66669 | 5179 ft | 249 kts | 301° |
| 2026-04-24 21:36 | 60.35846 | 24.63990 | 6079 ft | 247 kts | 322° |
| 2026-04-24 21:36 | 60.37392 | 24.62509 | 6983 ft | 251 kts | 347° |
| 2026-04-24 21:36 | 60.39153 | 24.62603 | 7959 ft | 259 kts | 8° |
| 2026-04-24 21:36 | 60.40922 | 24.63421 | 9003 ft | 264 kts | 9° |
| 2026-04-24 21:37 | 60.42729 | 24.64275 | 9995 ft | 269 kts | 9° |
| 2026-04-24 21:37 | 60.44630 | 24.65159 | 10528 ft | 291 kts | 8° |
| 2026-04-24 21:37 | 60.46685 | 24.66098 | 10939 ft | 313 kts | 8° |
| 2026-04-24 21:37 | 60.48844 | 24.67087 | 11713 ft | 321 kts | 8° |
| 2026-04-24 21:38 | 60.51029 | 24.68096 | 12678 ft | 324 kts | 8° |
| 2026-04-24 21:38 | 60.53244 | 24.69119 | 13587 ft | 329 kts | 8° |
| 2026-04-24 21:38 | 60.55485 | 24.70156 | 14422 ft | 333 kts | 7° |
| 2026-04-24 21:38 | 60.57763 | 24.71207 | 15216 ft | 337 kts | 7° |
| 2026-04-24 21:39 | 60.60066 | 24.72269 | 15986 ft | 342 kts | 6° |
| 2026-04-24 21:39 | 60.62405 | 24.73347 | 16765 ft | 347 kts | 6° |
| 2026-04-24 21:39 | 60.64742 | 24.74426 | 17522 ft | 351 kts | 6° |
| 2026-04-24 21:39 | 60.67140 | 24.75535 | 18251 ft | 356 kts | 6° |
| 2026-04-24 21:40 | 60.69573 | 24.76661 | 18894 ft | 360 kts | 6° |
| 2026-04-24 21:40 | 60.72034 | 24.77800 | 19536 ft | 365 kts | 6° |
| 2026-04-24 21:40 | 60.74507 | 24.78948 | 20163 ft | 369 kts | 6° |
| 2026-04-24 21:40 | 60.77049 | 24.80131 | 20808 ft | 374 kts | 6° |
| 2026-04-24 21:41 | 60.79602 | 24.81321 | 21435 ft | 378 kts | 6° |
| 2026-04-24 21:41 | 60.82184 | 24.82466 | 22065 ft | 380 kts | 2° |
| 2026-04-24 21:41 | 60.84810 | 24.83127 | 22779 ft | 380 kts | 359° |
| 2026-04-24 21:41 | 60.87451 | 24.83735 | 23360 ft | 385 kts | 359° |
| 2026-04-24 21:42 | 60.90134 | 24.84369 | 23867 ft | 389 kts | 359° |
| 2026-04-24 21:42 | 60.92835 | 24.85014 | 24383 ft | 392 kts | 359° |
| 2026-04-24 21:42 | 60.95558 | 24.85663 | 24878 ft | 396 kts | 359° |
| 2026-04-24 21:42 | 60.98310 | 24.86316 | 25340 ft | 401 kts | 360° |
| 2026-04-24 21:43 | 61.01061 | 24.86968 | 25778 ft | 405 kts | 360° |
| 2026-04-24 21:43 | 61.03876 | 24.87637 | 26253 ft | 408 kts | 360° |
| 2026-04-24 21:43 | 61.06706 | 24.88311 | 26712 ft | 412 kts | 360° |
| 2026-04-24 21:43 | 61.09567 | 24.88995 | 27160 ft | 415 kts | 360° |
| 2026-04-24 21:44 | 61.12460 | 24.89687 | 27592 ft | 419 kts | 360° |
| 2026-04-24 21:44 | 61.15358 | 24.90385 | 28172 ft | 419 kts | 359° |
| 2026-04-24 21:44 | 61.18261 | 24.91087 | 28670 ft | 421 kts | 359° |
| 2026-04-24 21:44 | 61.21186 | 24.91787 | 29007 ft | 425 kts | 359° |
| 2026-04-24 21:45 | 61.24138 | 24.92489 | 29402 ft | 428 kts | 359° |
| 2026-04-24 21:45 | 61.27106 | 24.93195 | 29775 ft | 431 kts | 359° |
| 2026-04-24 21:45 | 61.30097 | 24.93912 | 30100 ft | 434 kts | 359° |
| 2026-04-24 21:45 | 61.33071 | 24.94629 | 30417 ft | 437 kts | 359° |
| 2026-04-24 21:46 | 61.36102 | 24.95365 | 30739 ft | 440 kts | 359° |
| 2026-04-24 21:46 | 61.39148 | 24.96107 | 31109 ft | 441 kts | 359° |
| 2026-04-24 21:46 | 61.42200 | 24.96855 | 31526 ft | 442 kts | 359° |
| 2026-04-24 21:46 | 61.45252 | 24.97605 | 31988 ft | 442 kts | 359° |
| 2026-04-24 21:47 | 61.48301 | 24.98356 | 32420 ft | 441 kts | 359° |
| 2026-04-24 21:47 | 61.51359 | 24.99107 | 32798 ft | 442 kts | 359° |
| 2026-04-24 21:47 | 61.54412 | 24.99857 | 33178 ft | 442 kts | 359° |
| 2026-04-24 21:47 | 61.57476 | 25.00611 | 33545 ft | 443 kts | 360° |
| 2026-04-24 21:48 | 61.60536 | 25.01365 | 33881 ft | 443 kts | 359° |
| 2026-04-24 21:48 | 61.63584 | 25.01772 | 34201 ft | 439 kts | 356° |
| 2026-04-24 21:48 | 61.66640 | 25.02063 | 34512 ft | 439 kts | 356° |
| 2026-04-24 21:48 | 61.69701 | 25.02380 | 34819 ft | 439 kts | 356° |
| 2026-04-24 21:49 | 61.72755 | 25.02696 | 35122 ft | 439 kts | 356° |
| 2026-04-24 21:49 | 61.75767 | 25.03002 | 35415 ft | 439 kts | 357° |
| 2026-04-24 21:49 | 61.78809 | 25.03308 | 35800 ft | 437 kts | 357° |
| 2026-04-24 21:49 | 61.81843 | 25.03610 | 36093 ft | 436 kts | 357° |
| 2026-04-24 21:50 | 61.84874 | 25.03911 | 36313 ft | 437 kts | 357° |
| 2026-04-24 21:50 | 61.87927 | 25.04215 | 36550 ft | 438 kts | 357° |
| 2026-04-24 21:50 | 61.90969 | 25.04519 | 36812 ft | 438 kts | 357° |
| 2026-04-24 21:50 | 61.94017 | 25.04824 | 37071 ft | 438 kts | 357° |
| 2026-04-24 21:51 | 61.97061 | 25.05131 | 37327 ft | 438 kts | 357° |
| 2026-04-24 21:51 | 62.00105 | 25.05438 | 37554 ft | 438 kts | 358° |
| 2026-04-24 21:51 | 62.03158 | 25.05746 | 37647 ft | 438 kts | 358° |
| 2026-04-24 21:52 | 62.09237 | 25.06365 | 37668 ft | 436 kts | 358° |
| 2026-04-24 21:52 | 62.15306 | 25.06983 | 37635 ft | 437 kts | 358° |
| 2026-04-24 21:53 | 62.21336 | 25.07601 | 37648 ft | 437 kts | 358° |
| 2026-04-24 21:53 | 62.27413 | 25.08226 | 37645 ft | 437 kts | 358° |
| 2026-04-24 21:54 | 62.33480 | 25.08853 | 37633 ft | 437 kts | 358° |
| 2026-04-24 21:54 | 62.39554 | 25.09483 | 37636 ft | 437 kts | 358° |
| 2026-04-24 21:55 | 62.45636 | 25.10116 | 37636 ft | 437 kts | 358° |
| 2026-04-24 21:55 | 62.51680 | 25.10748 | 37631 ft | 437 kts | 358° |
| 2026-04-24 21:56 | 62.57800 | 25.11390 | 37632 ft | 437 kts | 358° |
| 2026-04-24 21:56 | 62.63845 | 25.12031 | 37621 ft | 438 kts | 358° |
| 2026-04-24 21:57 | 62.69941 | 25.12677 | 37631 ft | 438 kts | 358° |
| 2026-04-24 21:57 | 62.76032 | 25.13321 | 37620 ft | 439 kts | 358° |
| 2026-04-24 21:58 | 62.82137 | 25.13971 | 37621 ft | 439 kts | 358° |
| 2026-04-24 21:58 | 62.88210 | 25.14623 | 37621 ft | 439 kts | 358° |
| 2026-04-24 21:59 | 62.94322 | 25.15281 | 37625 ft | 440 kts | 358° |
| 2026-04-24 21:59 | 63.00435 | 25.15941 | 37624 ft | 440 kts | 358° |
| 2026-04-24 22:00 | 63.06551 | 25.16604 | 37661 ft | 440 kts | 358° |
| 2026-04-24 22:00 | 63.12672 | 25.17264 | 37634 ft | 440 kts | 359° |
| 2026-04-24 22:01 | 63.18789 | 25.17933 | 37629 ft | 440 kts | 359° |
| 2026-04-24 22:01 | 63.24895 | 25.18605 | 37624 ft | 439 kts | 359° |
| 2026-04-24 22:02 | 63.31005 | 25.19280 | 37619 ft | 439 kts | 359° |
| 2026-04-24 22:02 | 63.37097 | 25.19955 | 37617 ft | 439 kts | 359° |
| 2026-04-24 22:03 | 63.43140 | 25.20628 | 37616 ft | 434 kts | 359° |
| 2026-04-24 22:03 | 63.49183 | 25.21304 | 37617 ft | 435 kts | 359° |
| 2026-04-24 22:04 | 63.55230 | 25.21982 | 37619 ft | 435 kts | 359° |
| 2026-04-24 22:04 | 63.61291 | 25.22665 | 37617 ft | 435 kts | 359° |
| 2026-04-24 22:05 | 63.67343 | 25.23350 | 37620 ft | 435 kts | 359° |
| 2026-04-24 22:05 | 63.73400 | 25.24040 | 37616 ft | 436 kts | 359° |
| 2026-04-24 22:06 | 63.79458 | 25.24732 | 37609 ft | 436 kts | 359° |
| 2026-04-24 22:06 | 63.85476 | 25.25423 | 37602 ft | 436 kts | 359° |
| 2026-04-24 22:07 | 63.91532 | 25.26121 | 37608 ft | 436 kts | 359° |
| 2026-04-24 22:07 | 63.97594 | 25.26822 | 37609 ft | 436 kts | 359° |
| 2026-04-24 22:08 | 64.03647 | 25.27526 | 37604 ft | 436 kts | 359° |
| 2026-04-24 22:08 | 64.09717 | 25.28236 | 37602 ft | 437 kts | 359° |
| 2026-04-24 22:09 | 64.15767 | 25.28945 | 37594 ft | 438 kts | 359° |
| 2026-04-24 22:09 | 64.21855 | 25.29663 | 37604 ft | 438 kts | 359° |
| 2026-04-24 22:10 | 64.27940 | 25.30383 | 37612 ft | 438 kts | 359° |
| 2026-04-24 22:10 | 64.34045 | 25.31108 | 37617 ft | 439 kts | 359° |
| 2026-04-24 22:11 | 64.40152 | 25.31836 | 37618 ft | 440 kts | 359° |
| 2026-04-24 22:11 | 64.46279 | 25.32570 | 37605 ft | 441 kts | 359° |
| 2026-04-24 22:12 | 64.52420 | 25.33310 | 37605 ft | 441 kts | 359° |
| 2026-04-24 22:12 | 64.58517 | 25.34047 | 37615 ft | 442 kts | 359° |
| 2026-04-24 22:13 | 64.64663 | 25.34793 | 37614 ft | 442 kts | 359° |
| 2026-04-24 22:13 | 64.70818 | 25.35544 | 37612 ft | 442 kts | 359° |
| 2026-04-24 22:14 | 64.76978 | 25.36298 | 37619 ft | 444 kts | 359° |
| 2026-04-24 22:14 | 64.83143 | 25.37058 | 37617 ft | 444 kts | 359° |
| 2026-04-24 22:15 | 64.89315 | 25.37822 | 37619 ft | 444 kts | 359° |
| 2026-04-24 22:15 | 64.95428 | 25.38581 | 37617 ft | 444 kts | 359° |
| 2026-04-24 22:16 | 65.01609 | 25.39353 | 37611 ft | 444 kts | 359° |
| 2026-04-24 22:16 | 65.07770 | 25.40126 | 37622 ft | 444 kts | 359° |
| 2026-04-24 22:17 | 65.13956 | 25.40905 | 37594 ft | 445 kts | 359° |
| 2026-04-24 22:17 | 65.20148 | 25.41690 | 37592 ft | 445 kts | 359° |
| 2026-04-24 22:18 | 65.26348 | 25.42478 | 37601 ft | 446 kts | 359° |
| 2026-04-24 22:18 | 65.32544 | 25.43270 | 37603 ft | 446 kts | 359° |
| 2026-04-24 22:19 | 65.38759 | 25.44067 | 37606 ft | 447 kts | 359° |
| 2026-04-24 22:19 | 65.44937 | 25.44861 | 37607 ft | 448 kts | 359° |
| 2026-04-24 22:20 | 65.51159 | 25.45669 | 37607 ft | 448 kts | 359° |
| 2026-04-24 22:20 | 65.57388 | 25.46481 | 37613 ft | 448 kts | 359° |
| 2026-04-24 22:21 | 65.62612 | 25.47165 | 37613 ft | 449 kts | 359° |
| 2026-04-24 22:21 | 65.68807 | 25.47979 | 37617 ft | 449 kts | 359° |
| 2026-04-24 22:22 | 65.75048 | 25.48802 | 37617 ft | 449 kts | 359° |
| 2026-04-24 22:22 | 65.81287 | 25.49630 | 37620 ft | 449 kts | 359° |
| 2026-04-24 22:23 | 65.87541 | 25.50463 | 37622 ft | 449 kts | 359° |
| 2026-04-24 22:23 | 65.93782 | 25.51298 | 37622 ft | 449 kts | 359° |
| 2026-04-24 22:24 | 66.00022 | 25.52136 | 37622 ft | 449 kts | 359° |
| 2026-04-24 22:24 | 66.06262 | 25.53136 | 37621 ft | 451 kts | 4° |
| 2026-04-24 22:25 | 66.12397 | 25.56634 | 37617 ft | 453 kts | 12° |
| 2026-04-24 22:25 | 66.18412 | 25.60841 | 37616 ft | 452 kts | 12° |
| 2026-04-24 22:26 | 66.24469 | 25.65071 | 37614 ft | 452 kts | 12° |
| 2026-04-24 22:26 | 66.30520 | 25.69368 | 37604 ft | 453 kts | 12° |
| 2026-04-24 22:27 | 66.36577 | 25.73707 | 37603 ft | 453 kts | 12° |
| 2026-04-24 22:27 | 66.42631 | 25.78066 | 37600 ft | 453 kts | 12° |
| 2026-04-24 22:28 | 66.48694 | 25.82453 | 37593 ft | 453 kts | 12° |
| 2026-04-24 22:28 | 66.54754 | 25.86860 | 37588 ft | 453 kts | 12° |
| 2026-04-24 22:29 | 66.63823 | 25.93498 | 37582 ft | 452 kts | 12° |
| 2026-04-24 22:29 | 66.69855 | 25.97941 | 37586 ft | 452 kts | 13° |
| 2026-04-24 22:30 | 66.75891 | 26.02410 | 37596 ft | 452 kts | 12° |
| 2026-04-24 22:30 | 66.81890 | 26.06873 | 37616 ft | 452 kts | 12° |
| 2026-04-24 22:31 | 66.87928 | 26.11388 | 37614 ft | 452 kts | 12° |
| 2026-04-24 22:31 | 66.93945 | 26.15914 | 37309 ft | 448 kts | 12° |
| 2026-04-24 22:32 | 66.96925 | 26.18166 | 36874 ft | 445 kts | 12° |
| 2026-04-24 22:32 | 66.99877 | 26.20403 | 36395 ft | 440 kts | 12° |
| 2026-04-24 22:32 | 67.02796 | 26.22621 | 35922 ft | 436 kts | 12° |
| 2026-04-24 22:32 | 67.05688 | 26.24823 | 35480 ft | 431 kts | 12° |
| 2026-04-24 22:33 | 67.08550 | 26.27007 | 35009 ft | 427 kts | 11° |
| 2026-04-24 22:33 | 67.11388 | 26.29179 | 34544 ft | 424 kts | 11° |
| 2026-04-24 22:33 | 67.14200 | 26.31335 | 34104 ft | 420 kts | 11° |
| 2026-04-24 22:33 | 67.16980 | 26.33473 | 33703 ft | 415 kts | 11° |
| 2026-04-24 22:34 | 67.19713 | 26.35583 | 33601 ft | 407 kts | 11° |
| 2026-04-24 22:34 | 67.22461 | 26.37694 | 33509 ft | 416 kts | 11° |
| 2026-04-24 22:34 | 67.25241 | 26.39832 | 33157 ft | 417 kts | 11° |
| 2026-04-24 22:34 | 67.28006 | 26.41978 | 32818 ft | 412 kts | 11° |
| 2026-04-24 22:35 | 67.30725 | 26.44100 | 32482 ft | 405 kts | 11° |
| 2026-04-24 22:35 | 67.33403 | 26.46192 | 32139 ft | 400 kts | 11° |
| 2026-04-24 22:35 | 67.36059 | 26.48265 | 31856 ft | 398 kts | 11° |
| 2026-04-24 22:35 | 67.38708 | 26.50330 | 31533 ft | 398 kts | 11° |
| 2026-04-24 22:36 | 67.41361 | 26.52407 | 31209 ft | 396 kts | 11° |
| 2026-04-24 22:36 | 67.43983 | 26.54468 | 30893 ft | 392 kts | 11° |
| 2026-04-24 22:36 | 67.46585 | 26.56520 | 30579 ft | 389 kts | 11° |
| 2026-04-24 22:36 | 67.49159 | 26.58554 | 30270 ft | 385 kts | 11° |
| 2026-04-24 22:37 | 67.51718 | 26.60580 | 29969 ft | 382 kts | 11° |
| 2026-04-24 22:37 | 67.54223 | 26.62566 | 29662 ft | 380 kts | 11° |
| 2026-04-24 22:37 | 67.56781 | 26.64599 | 29286 ft | 377 kts | 11° |
| 2026-04-24 22:37 | 67.59250 | 26.66567 | 28911 ft | 374 kts | 11° |
| 2026-04-24 22:38 | 67.61733 | 26.68550 | 28535 ft | 371 kts | 11° |
| 2026-04-24 22:38 | 67.64191 | 26.70519 | 28174 ft | 368 kts | 11° |
| 2026-04-24 22:38 | 67.66634 | 26.72477 | 27690 ft | 367 kts | 11° |
| 2026-04-24 22:38 | 67.69071 | 26.74431 | 27196 ft | 365 kts | 12° |
| 2026-04-24 22:39 | 67.71492 | 26.76373 | 26666 ft | 363 kts | 12° |
| 2026-04-24 22:39 | 67.73904 | 26.78316 | 26143 ft | 360 kts | 12° |
| 2026-04-24 22:39 | 67.76295 | 26.80250 | 25628 ft | 358 kts | 12° |
| 2026-04-24 22:39 | 67.78668 | 26.82175 | 25128 ft | 356 kts | 12° |
| 2026-04-24 22:40 | 67.81033 | 26.84096 | 24635 ft | 354 kts | 12° |
| 2026-04-24 22:40 | 67.83381 | 26.86008 | 24148 ft | 352 kts | 12° |
| 2026-04-24 22:40 | 67.85713 | 26.87911 | 23672 ft | 349 kts | 12° |
| 2026-04-24 22:40 | 67.88032 | 26.89807 | 23195 ft | 347 kts | 12° |
| 2026-04-24 22:41 | 67.90331 | 26.91691 | 22613 ft | 345 kts | 12° |
| 2026-04-24 22:41 | 67.92620 | 26.93570 | 22040 ft | 343 kts | 12° |
| 2026-04-24 22:41 | 67.94865 | 26.95417 | 21484 ft | 341 kts | 12° |
| 2026-04-24 22:41 | 67.97152 | 26.97302 | 20925 ft | 339 kts | 12° |
| 2026-04-24 22:42 | 67.99370 | 26.99135 | 20393 ft | 337 kts | 12° |
| 2026-04-24 22:42 | 68.01604 | 27.00978 | 19881 ft | 335 kts | 13° |
| 2026-04-24 22:42 | 68.03825 | 27.02814 | 19351 ft | 333 kts | 13° |
| 2026-04-24 22:42 | 68.06034 | 27.04649 | 18845 ft | 332 kts | 13° |
| 2026-04-24 22:43 | 68.08237 | 27.06484 | 18331 ft | 330 kts | 13° |
| 2026-04-24 22:43 | 68.10425 | 27.08311 | 17822 ft | 329 kts | 13° |
| 2026-04-24 22:43 | 68.12603 | 27.10131 | 17241 ft | 327 kts | 13° |
| 2026-04-24 22:43 | 68.14775 | 27.11951 | 16677 ft | 325 kts | 13° |
| 2026-04-24 22:44 | 68.16931 | 27.13759 | 16128 ft | 324 kts | 13° |
| 2026-04-24 22:44 | 68.19074 | 27.15559 | 15581 ft | 322 kts | 13° |
| 2026-04-24 22:44 | 68.21211 | 27.17356 | 15099 ft | 319 kts | 14° |
| 2026-04-24 22:44 | 68.23286 | 27.19119 | 14760 ft | 313 kts | 15° |
| 2026-04-24 22:45 | 68.25317 | 27.21330 | 14417 ft | 308 kts | 19° |
| 2026-04-24 22:45 | 68.27269 | 27.23546 | 14076 ft | 302 kts | 19° |
| 2026-04-24 22:45 | 68.29195 | 27.25689 | 13733 ft | 296 kts | 18° |
| 2026-04-24 22:45 | 68.31062 | 27.27764 | 13407 ft | 291 kts | 18° |
| 2026-04-24 22:46 | 68.32945 | 27.29864 | 13045 ft | 287 kts | 19° |
| 2026-04-24 22:46 | 68.34754 | 27.31892 | 12685 ft | 282 kts | 19° |
| 2026-04-24 22:46 | 68.36546 | 27.33914 | 12401 ft | 276 kts | 19° |
| 2026-04-24 22:46 | 68.38324 | 27.35924 | 12121 ft | 277 kts | 19° |
| 2026-04-24 22:47 | 68.40089 | 27.37923 | 11838 ft | 272 kts | 19° |
| 2026-04-24 22:47 | 68.41838 | 27.39909 | 11563 ft | 272 kts | 19° |
| 2026-04-24 22:47 | 68.43568 | 27.41877 | 11288 ft | 269 kts | 19° |
| 2026-04-24 22:47 | 68.45292 | 27.43839 | 11013 ft | 266 kts | 19° |
| 2026-04-24 22:48 | 68.46996 | 27.45781 | 10750 ft | 265 kts | 19° |
| 2026-04-24 22:48 | 68.48683 | 27.47707 | 10481 ft | 262 kts | 19° |
| 2026-04-24 22:48 | 68.50363 | 27.49629 | 10215 ft | 260 kts | 19° |
| 2026-04-24 22:48 | 68.52019 | 27.51528 | 9951 ft | 258 kts | 19° |
| 2026-04-24 22:49 | 68.53613 | 27.53795 | 9698 ft | 259 kts | 29° |
| 2026-04-24 22:49 | 68.55007 | 27.56984 | 9431 ft | 263 kts | 41° |
| 2026-04-24 22:49 | 68.56234 | 27.60677 | 9142 ft | 262 kts | 42° |
| 2026-04-24 22:49 | 68.57451 | 27.64296 | 8856 ft | 262 kts | 42° |
| 2026-04-24 22:50 | 68.58700 | 27.67987 | 8590 ft | 259 kts | 42° |
| 2026-04-24 22:50 | 68.59926 | 27.71609 | 8301 ft | 259 kts | 42° |
| 2026-04-24 22:50 | 68.61147 | 27.75225 | 8041 ft | 258 kts | 43° |
| 2026-04-24 22:50 | 68.62374 | 27.78867 | 7778 ft | 261 kts | 43° |
| 2026-04-24 22:51 | 68.63595 | 27.82506 | 7506 ft | 258 kts | 43° |
| 2026-04-24 22:51 | 68.64796 | 27.86084 | 7236 ft | 258 kts | 43° |
| 2026-04-24 22:51 | 68.66022 | 27.89742 | 6921 ft | 257 kts | 43° |
| 2026-04-24 22:51 | 68.67436 | 27.92561 | 6580 ft | 249 kts | 19° |
| 2026-04-24 22:52 | 68.69088 | 27.93278 | 6245 ft | 245 kts | 353° |
| 2026-04-24 22:52 | 68.70695 | 27.91853 | 5901 ft | 244 kts | 328° |
| 2026-04-24 22:52 | 68.71996 | 27.88852 | 5458 ft | 245 kts | 318° |
| 2026-04-24 22:52 | 68.72976 | 27.85060 | 5065 ft | 247 kts | 294° |
| 2026-04-24 22:53 | 68.73217 | 27.80372 | 4661 ft | 253 kts | 266° |
| 2026-04-24 22:53 | 68.72555 | 27.75798 | 4069 ft | 266 kts | 239° |
| 2026-04-24 22:53 | 68.71371 | 27.71823 | 3580 ft | 270 kts | 230° |
| 2026-04-24 22:53 | 68.70071 | 27.68096 | 3158 ft | 268 kts | 231° |
| 2026-04-24 22:54 | 68.68803 | 27.64348 | 2769 ft | 266 kts | 230° |
| 2026-04-24 22:54 | 68.67553 | 27.60637 | 2381 ft | 264 kts | 230° |
| 2026-04-24 22:54 | 68.66313 | 27.56977 | 2002 ft | 258 kts | 231° |
| 2026-04-24 22:54 | 68.65121 | 27.53469 | 1609 ft | 239 kts | 230° |
| 2026-04-24 22:55 | 68.64054 | 27.50317 | 1234 ft | 212 kts | 228° |
| 2026-04-24 22:55 | 68.63104 | 27.47524 | 993 ft | 186 kts | 228° |
| 2026-04-24 22:55 | 68.62271 | 27.45074 | 734 ft | 166 kts | 229° |
| 2026-04-24 22:55 | 68.61526 | 27.42887 | 646 ft | 147 kts | 229° |
| 2026-04-24 22:56 | 68.60731 | 27.40569 | 940 ft | 181 kts | 227° |
| 2026-04-24 22:56 | 68.59782 | 27.37995 | 1491 ft | 200 kts | 226° |
| 2026-04-24 22:56 | 68.58509 | 27.36205 | 2165 ft | 224 kts | 188° |
| 2026-04-24 22:56 | 68.56895 | 27.36374 | 2758 ft | 234 kts | 187° |
| 2026-04-24 22:57 | 68.55319 | 27.35505 | 3299 ft | 236 kts | 188° |
| 2026-04-24 22:57 | 68.53701 | 27.36076 | 3451 ft | 239 kts | 157° |
| 2026-04-24 22:57 | 68.52350 | 27.38636 | 3471 ft | 238 kts | 136° |
| 2026-04-24 22:57 | 68.51159 | 27.41727 | 3466 ft | 236 kts | 129° |
| 2026-04-24 22:58 | 68.50434 | 27.45612 | 3470 ft | 229 kts | 96° |
| 2026-04-24 22:58 | 68.50574 | 27.49761 | 3469 ft | 218 kts | 61° |
| 2026-04-24 22:58 | 68.51403 | 27.53131 | 3464 ft | 213 kts | 47° |
| 2026-04-24 22:58 | 68.52320 | 27.56302 | 3467 ft | 213 kts | 46° |
| 2026-04-24 22:59 | 68.53242 | 27.59486 | 3464 ft | 213 kts | 47° |
| 2026-04-24 22:59 | 68.54158 | 27.62651 | 3466 ft | 213 kts | 47° |
| 2026-04-24 22:59 | 68.55986 | 27.68961 | 3467 ft | 213 kts | 47° |
| 2026-04-24 23:00 | 68.56909 | 27.72147 | 3468 ft | 213 kts | 47° |
| 2026-04-24 23:00 | 68.57831 | 27.75346 | 3473 ft | 217 kts | 47° |
| 2026-04-24 23:00 | 68.58756 | 27.78553 | 3466 ft | 212 kts | 47° |
| 2026-04-24 23:00 | 68.59676 | 27.81746 | 3479 ft | 213 kts | 47° |
| 2026-04-24 23:01 | 68.60597 | 27.84934 | 3462 ft | 212 kts | 47° |
| 2026-04-24 23:01 | 68.61513 | 27.88112 | 3472 ft | 213 kts | 47° |
| 2026-04-24 23:01 | 68.62433 | 27.91295 | 3472 ft | 213 kts | 47° |
| 2026-04-24 23:01 | 68.63356 | 27.94477 | 3483 ft | 213 kts | 47° |
| 2026-04-24 23:02 | 68.64279 | 27.97668 | 3477 ft | 212 kts | 47° |
| 2026-04-24 23:02 | 68.64884 | 27.99768 | 3470 ft | 213 kts | 47° |
| 2026-04-24 23:02 | 68.66114 | 28.04038 | 3485 ft | 213 kts | 47° |
| 2026-04-24 23:02 | 68.66727 | 28.06138 | 3478 ft | 212 kts | 44° |
| 2026-04-24 23:03 | 68.67922 | 28.08239 | 3487 ft | 205 kts | 11° |
| 2026-04-24 23:03 | 68.69312 | 28.08075 | 3479 ft | 202 kts | 339° |
| 2026-04-24 23:03 | 68.70426 | 28.05790 | 3472 ft | 204 kts | 307° |
| 2026-04-24 23:03 | 68.71072 | 28.02375 | 3471 ft | 197 kts | 298° |
| 2026-04-24 23:04 | 68.71649 | 27.99045 | 3483 ft | 194 kts | 299° |
| 2026-04-24 23:04 | 68.72238 | 27.95687 | 3476 ft | 194 kts | 299° |
| 2026-04-24 23:04 | 68.72828 | 27.92353 | 3468 ft | 193 kts | 299° |
| 2026-04-24 23:04 | 68.73419 | 27.89030 | 3477 ft | 193 kts | 299° |
| 2026-04-24 23:05 | 68.74008 | 27.85711 | 3473 ft | 193 kts | 298° |
| 2026-04-24 23:05 | 68.74237 | 27.82053 | 3481 ft | 202 kts | 265° |
| 2026-04-24 23:05 | 68.73631 | 27.78575 | 3484 ft | 206 kts | 233° |
| 2026-04-24 23:05 | 68.72686 | 27.75758 | 3469 ft | 193 kts | 231° |
| 2026-04-24 23:06 | 68.71752 | 27.73091 | 3473 ft | 195 kts | 231° |
| 2026-04-24 23:06 | 68.70823 | 27.70415 | 3474 ft | 193 kts | 231° |
| 2026-04-24 23:06 | 68.69915 | 27.67635 | 3203 ft | 196 kts | 232° |
| 2026-04-24 23:06 | 68.68998 | 27.64921 | 2877 ft | 192 kts | 232° |
| 2026-04-24 23:07 | 68.68114 | 27.62301 | 2569 ft | 180 kts | 232° |
| 2026-04-24 23:07 | 68.67294 | 27.59880 | 2305 ft | 167 kts | 233° |
| 2026-04-24 23:07 | 68.66539 | 27.57652 | 2088 ft | 151 kts | 233° |
| 2026-04-24 23:07 | 68.65856 | 27.55637 | 1862 ft | 137 kts | 234° |
| 2026-04-24 23:08 | 68.65199 | 27.53686 | 1647 ft | 138 kts | 233° |
| 2026-04-24 23:08 | 68.64562 | 27.51813 | 1438 ft | 135 kts | 231° |
| 2026-04-24 23:08 | 68.63915 | 27.49906 | 1442 ft | 138 kts | 230° |
| 2026-04-24 23:08 | 68.63165 | 27.47777 | 1087 ft | 174 kts | 227° |
| 2026-04-24 23:09 | 68.62408 | 27.45480 | 783 ft | 148 kts | 230° |
| 2026-04-24 23:09 | 68.61753 | 27.43551 | 593 ft | 129 kts | 227° |
| 2026-04-24 23:09 | 68.61175 | 27.41852 | 469 ft | 113 kts | 228° |
| 2026-04-24 23:09 | 68.60806 | 27.40756 | 474 ft | 51 kts | 227° |
| 2026-04-24 23:10 | 68.60646 | 27.40331 | 470 ft | 15 kts | 179° |
| 2026-04-24 23:10 | 68.60636 | 27.40573 | 472 ft | 21 kts | 101° |
| 2026-04-24 23:10 | 68.60627 | 27.40803 | 480 ft | 7 kts | 86° |
| 2026-04-24 23:10 | 68.60628 | 27.40881 | 481 ft | 5 kts | 90° |
| 2026-04-24 23:11 | 68.60641 | 27.40992 | 475 ft | 6 kts | 54° |
| 2026-04-24 23:11 | 68.60680 | 27.41082 | 478 ft | 8 kts | 39° |
| 2026-04-24 23:11 | 68.60730 | 27.41224 | 479 ft | 13 kts | 46° |
| 2026-04-24 23:11 | 68.60798 | 27.41412 | 474 ft | 15 kts | 45° |
| 2026-04-24 23:12 | 68.60840 | 27.41530 | 475 ft | 7 kts | 45° |
| 2026-04-24 23:12 | 68.60867 | 27.41613 | 480 ft | 5 kts | 64° |
| 2026-04-24 23:12 | 68.60853 | 27.41689 | 479 ft | 2 kts | 135° |
| 2026-04-24 23:12 | 68.60835 | 27.41738 | 476 ft | 5 kts | 135° |
| 2026-04-24 23:13 | 68.60828 | 27.41756 | 482 ft | 0 kts | 135° |